Time,TemperatureF,DewpointF,PressureIn,WindDirection,WindDirectionDegrees,WindSpeedMPH,WindSpeedGustMPH,Humidity,HourlyPrecipIn,Conditions,Clouds,dailyrainin,SolarRadiationWatts/m^2,SoftwareType,DateUTC
2013-11-16 10:25:00,51.8,47.4,30.26,North,353,5.0,13.0,85,0.00,,,0.00,91,Wunderground v.1.15,2013-11-16 08:25:00,
2013-11-16 10:30:00,51.9,47.2,30.26,NNE,23,6.0,13.0,84,0.00,,,0.00,90,Wunderground v.1.15,2013-11-16 08:30:00,
2013-11-16 10:35:00,52.2,47.2,30.26,NNE,32,6.0,6.0,83,0.00,,,0.00,88,Wunderground v.1.15,2013-11-16 08:35:00,
2013-11-16 10:40:00,52.4,47.4,30.26,NNE,27,5.0,13.0,83,0.00,,,0.00,90,Wunderground v.1.15,2013-11-16 08:40:00,
2013-11-16 10:50:00,52.7,47.0,30.26,NNE,29,6.0,13.0,81,0.00,,,0.00,79,Wunderground v.1.15,2013-11-16 08:50:00,
2013-11-16 10:55:00,52.8,46.8,30.26,NNE,21,8.0,8.0,80,0.00,,,0.00,60,Wunderground v.1.15,2013-11-16 08:55:00,
2013-11-16 11:00:00,52.9,46.9,30.26,NNE,16,8.0,8.0,80,0.00,,,0.00,63,Wunderground v.1.15,2013-11-16 09:00:00,
2013-11-16 11:10:00,53.0,47.0,30.25,North,353,6.0,7.0,80,0.00,,,0.00,76,Wunderground v.1.15,2013-11-16 09:10:00,
2013-11-16 11:15:00,53.0,47.0,30.25,NNW,339,6.0,7.0,80,0.00,,,0.00,86,Wunderground v.1.15,2013-11-16 09:15:00,
2013-11-16 11:20:00,53.0,46.7,30.26,NNW,348,8.0,9.0,79,0.00,,,0.00,81,Wunderground v.1.15,2013-11-16 09:20:00,
2013-11-16 11:25:00,53.0,46.7,30.25,NNE,14,8.0,9.0,79,0.00,,,0.00,67,Wunderground v.1.15,2013-11-16 09:25:00,
2013-11-16 11:30:00,53.1,47.1,30.25,NNW,348,5.0,5.0,80,0.00,,,0.00,72,Wunderground v.1.15,2013-11-16 09:30:00,
2013-11-16 11:40:00,53.1,46.4,30.25,NNW,348,7.0,13.0,78,0.00,,,0.00,91,Wunderground v.1.15,2013-11-16 09:40:00,
2013-11-16 11:45:00,53.1,46.4,30.25,NE,42,9.0,13.0,78,0.00,,,0.00,97,Wunderground v.1.15,2013-11-16 09:45:00,
2013-11-16 11:50:00,53.0,46.3,30.25,NNE,20,9.0,9.0,78,0.00,,,0.00,84,Wunderground v.1.15,2013-11-16 09:50:00,
2013-11-16 11:55:00,53.0,46.0,30.25,NNE,18,9.0,12.0,77,0.00,,,0.00,70,Wunderground v.1.15,2013-11-16 09:55:00,
2013-11-16 12:00:00,53.0,46.0,30.25,NE,44,10.0,18.0,77,0.00,,,0.00,77,Wunderground v.1.15,2013-11-16 10:00:00,
2013-11-16 12:10:00,52.8,46.1,30.25,North,358,9.0,9.0,78,0.00,,,0.00,65,Wunderground v.1.15,2013-11-16 10:10:00,
2013-11-16 12:15:00,52.8,45.8,30.25,NNE,14,9.0,9.0,77,0.00,,,0.00,62,Wunderground v.1.15,2013-11-16 10:15:00,
2013-11-16 12:20:00,52.8,46.1,30.25,NNE,22,9.0,9.0,78,0.00,,,0.00,79,Wunderground v.1.15,2013-11-16 10:20:00,
2013-11-16 12:25:00,52.8,46.1,30.24,North,358,7.0,10.0,78,0.00,,,0.00,77,Wunderground v.1.15,2013-11-16 10:25:00,
2013-11-16 12:30:00,52.8,45.8,30.24,North,358,7.0,13.0,77,0.00,,,0.00,95,Wunderground v.1.15,2013-11-16 10:30:00,
2013-11-16 12:35:00,52.8,45.8,30.24,NNE,31,8.0,13.0,77,0.00,,,0.00,77,Wunderground v.1.15,2013-11-16 10:35:00,
2013-11-16 12:45:00,52.8,45.4,30.24,NE,45,9.0,13.0,76,0.00,,,0.00,69,Wunderground v.1.15,2013-11-16 10:45:00,
2013-11-16 12:50:00,52.9,45.5,30.24,North,358,7.0,7.0,76,0.00,,,0.00,65,Wunderground v.1.15,2013-11-16 10:50:00,
2013-11-16 12:55:00,52.9,45.5,30.24,NNE,13,6.0,8.0,76,0.00,,,0.00,56,Wunderground v.1.15,2013-11-16 10:55:00,
2013-11-16 13:05:00,52.9,45.2,30.25,NNW,332,8.0,15.0,75,0.00,,,0.00,65,Wunderground v.1.15,2013-11-16 11:05:00,
2013-11-16 13:10:00,52.8,45.4,30.25,North,2,7.0,7.0,76,0.00,,,0.00,62,Wunderground v.1.15,2013-11-16 11:10:00,
2013-11-16 13:15:00,52.8,45.4,30.25,NNE,13,7.0,7.0,76,0.00,,,0.00,72,Wunderground v.1.15,2013-11-16 11:15:00,
2013-11-16 13:20:00,52.9,45.5,30.25,NNE,12,8.0,15.0,76,0.00,,,0.00,76,Wunderground v.1.15,2013-11-16 11:20:00,
2013-11-16 13:25:00,52.8,45.4,30.24,NNW,348,8.0,15.0,76,0.00,,,0.00,79,Wunderground v.1.15,2013-11-16 11:25:00,
2013-11-16 13:30:00,52.9,45.5,30.24,North,358,7.0,7.0,76,0.00,,,0.00,67,Wunderground v.1.15,2013-11-16 11:30:00,
2013-11-16 13:35:00,52.8,45.4,30.24,NNE,19,7.0,7.0,76,0.00,,,0.00,44,Wunderground v.1.15,2013-11-16 11:35:00,
2013-11-16 13:40:00,52.8,45.4,30.24,NNE,22,7.0,13.0,76,0.00,,,0.00,53,Wunderground v.1.15,2013-11-16 11:40:00,
2013-11-16 18:25:00,51.5,42.8,30.24,North,4,5.0,14.0,72,0.00,,,0.00,0,Wunderground v.1.15,2013-11-16 16:25:00,
2013-11-16 18:30:00,51.5,42.8,30.24,North,6,5.0,14.0,72,0.00,,,0.00,0,Wunderground v.1.15,2013-11-16 16:30:00,
2013-11-16 18:35:00,51.5,42.8,30.24,NNE,19,5.0,14.0,72,0.00,,,0.00,0,Wunderground v.1.15,2013-11-16 16:35:00,
2013-11-16 18:40:00,51.5,42.8,30.25,NW,317,5.0,14.0,72,0.00,,,0.00,0,Wunderground v.1.15,2013-11-16 16:40:00,
2013-11-16 18:45:00,51.4,42.7,30.24,North,8,5.0,14.0,72,0.00,,,0.00,0,Wunderground v.1.15,2013-11-16 16:45:00,
2013-11-16 18:50:00,51.4,42.7,30.24,North,6,5.0,14.0,72,0.00,,,0.00,0,Wunderground v.1.15,2013-11-16 16:50:00,
2013-11-16 18:55:00,51.4,42.3,30.24,North,2,5.0,5.0,71,0.00,,,0.00,0,Wunderground v.1.15,2013-11-16 16:55:00,
2013-11-16 19:00:00,51.4,42.3,30.24,NNE,27,5.0,5.0,71,0.00,,,0.00,0,Wunderground v.1.15,2013-11-16 17:00:00,
2013-11-16 19:10:00,51.3,42.2,30.24,NE,42,4.0,5.0,71,0.00,,,0.00,0,Wunderground v.1.15,2013-11-16 17:10:00,
2013-11-16 19:15:00,51.3,42.2,30.24,NNE,25,4.0,7.0,71,0.00,,,0.00,0,Wunderground v.1.15,2013-11-16 17:15:00,
2013-11-16 19:20:00,51.3,42.6,30.24,NNE,30,5.0,5.0,72,0.00,,,0.00,0,Wunderground v.1.15,2013-11-16 17:20:00,
2013-11-16 19:25:00,51.2,42.5,30.24,NE,34,4.0,5.0,72,0.00,,,0.00,0,Wunderground v.1.15,2013-11-16 17:25:00,
2013-11-16 19:30:00,51.2,42.5,30.24,North,2,3.0,3.0,72,0.00,,,0.00,0,Wunderground v.1.15,2013-11-16 17:30:00,
2013-11-16 19:35:00,51.1,42.4,30.24,NNE,15,3.0,4.0,72,0.00,,,0.00,0,Wunderground v.1.15,2013-11-16 17:35:00,
2013-11-16 19:40:00,51.0,42.3,30.24,NNE,22,3.0,4.0,72,0.00,,,0.00,0,Wunderground v.1.15,2013-11-16 17:40:00,
2013-11-16 19:50:00,50.8,42.5,30.24,NNW,348,3.0,9.0,73,0.00,,,0.00,0,Wunderground v.1.15,2013-11-16 17:50:00,